Terminal Aerodrome Forecast
Issued by NWS

Home | Current Version | Previous Version | Text Only | Print | Product List | Glossary On
Versions: 1 2 3 4 5 6 7 8 9 10 11 12 13 14 15 16 17
836
FTUS46 KLOX 251720
TAFWJF
TAF
KWJF 251720Z 2518/2618 06014G22KT P6SM SKC
     FM260100 07008KT P6SM SKC
     FM260500 VRB03KT P6SM SKC=

USA.gov is the U.S. government's official web portal to all federal, state and local government web resources and services.